sensor_id;sensor_type;location;lat;lon;timestamp;P1;durP1;ratioP1;P2;durP2;ratioP2
18102;SDS011;9178;51.120;6.192;2022-12-31T00:02:19;0.50;;;0.50;;
18102;SDS011;9178;51.120;6.192;2022-12-31T00:04:47;3.40;;;0.47;;
18102;SDS011;9178;51.120;6.192;2022-12-31T00:07:14;0.53;;;0.37;;
18102;SDS011;9178;51.120;6.192;2022-12-31T00:09:41;0.40;;;0.40;;
18102;SDS011;9178;51.120;6.192;2022-12-31T00:12:08;0.60;;;0.30;;
18102;SDS011;9178;51.120;6.192;2022-12-31T00:14:34;0.73;;;0.23;;
18102;SDS011;9178;51.120;6.192;2022-12-31T00:17:01;0.60;;;0.50;;
18102;SDS011;9178;51.120;6.192;2022-12-31T00:19:28;0.53;;;0.30;;
18102;SDS011;9178;51.120;6.192;2022-12-31T00:21:56;0.67;;;0.33;;
18102;SDS011;9178;51.120;6.192;2022-12-31T00:24:23;0.97;;;0.30;;
18102;SDS011;9178;51.120;6.192;2022-12-31T00:26:54;0.20;;;0.20;;
18102;SDS011;9178;51.120;6.192;2022-12-31T00:29:20;0.57;;;0.20;;
18102;SDS011;9178;51.120;6.192;2022-12-31T00:31:47;0.10;;;0.10;;
18102;SDS011;9178;51.120;6.192;2022-12-31T00:34:14;0.10;;;0.10;;
18102;SDS011;9178;51.120;6.192;2022-12-31T00:36:41;0.10;;;0.10;;
18102;SDS011;9178;51.120;6.192;2022-12-31T00:39:11;0.20;;;0.20;;
18102;SDS011;9178;51.120;6.192;2022-12-31T00:41:38;0.17;;;0.10;;
18102;SDS011;9178;51.120;6.192;2022-12-31T00:44:07;0.10;;;0.10;;
18102;SDS011;9178;51.120;6.192;2022-12-31T00:46:35;0.20;;;0.10;;
18102;SDS011;9178;51.120;6.192;2022-12-31T00:49:02;0.17;;;0.10;;
18102;SDS011;9178;51.120;6.192;2022-12-31T00:51:30;0.20;;;0.10;;
18102;SDS011;9178;51.120;6.192;2022-12-31T00:53:57;0.10;;;0.10;;
18102;SDS011;9178;51.120;6.192;2022-12-31T00:56:26;0.10;;;0.10;;
18102;SDS011;9178;51.120;6.192;2022-12-31T00:58:54;0.67;;;0.17;;
18102;SDS011;9178;51.120;6.192;2022-12-31T01:01:22;1.23;;;0.20;;
18102;SDS011;9178;51.120;6.192;2022-12-31T01:03:51;0.73;;;0.20;;
18102;SDS011;9178;51.120;6.192;2022-12-31T01:06:21;0.10;;;0.10;;
18102;SDS011;9178;51.120;6.192;2022-12-31T01:08:49;0.40;;;0.30;;
18102;SDS011;9178;51.120;6.192;2022-12-31T01:11:17;0.20;;;0.07;;
18102;SDS011;9178;51.120;6.192;2022-12-31T01:13:47;0.20;;;0.20;;
18102;SDS011;9178;51.120;6.192;2022-12-31T01:16:16;0.50;;;0.10;;
18102;SDS011;9178;51.120;6.192;2022-12-31T01:18:45;0.10;;;0.10;;
18102;SDS011;9178;51.120;6.192;2022-12-31T01:21:12;0.00;;;0.00;;
18102;SDS011;9178;51.120;6.192;2022-12-31T01:23:40;1.80;;;0.20;;
18102;SDS011;9178;51.120;6.192;2022-12-31T01:26:08;0.00;;;0.00;;
18102;SDS011;9178;51.120;6.192;2022-12-31T01:28:36;0.00;;;0.00;;
18102;SDS011;9178;51.120;6.192;2022-12-31T01:31:05;0.40;;;0.00;;
18102;SDS011;9178;51.120;6.192;2022-12-31T01:33:33;0.10;;;0.10;;
18102;SDS011;9178;51.120;6.192;2022-12-31T01:36:01;0.47;;;0.10;;
18102;SDS011;9178;51.120;6.192;2022-12-31T01:38:28;1.43;;;0.10;;
18102;SDS011;9178;51.120;6.192;2022-12-31T01:40:55;0.30;;;0.00;;
18102;SDS011;9178;51.120;6.192;2022-12-31T01:43:22;0.10;;;0.10;;
18102;SDS011;9178;51.120;6.192;2022-12-31T01:45:49;0.97;;;0.10;;
18102;SDS011;9178;51.120;6.192;2022-12-31T01:48:21;0.10;;;0.10;;
18102;SDS011;9178;51.120;6.192;2022-12-31T01:50:52;0.53;;;0.30;;
18102;SDS011;9178;51.120;6.192;2022-12-31T01:53:20;0.00;;;0.00;;
18102;SDS011;9178;51.120;6.192;2022-12-31T01:55:48;0.00;;;0.00;;
18102;SDS011;9178;51.120;6.192;2022-12-31T01:58:17;0.70;;;0.10;;
18102;SDS011;9178;51.120;6.192;2022-12-31T02:00:47;0.10;;;0.10;;
18102;SDS011;9178;51.120;6.192;2022-12-31T02:03:20;0.30;;;0.10;;
18102;SDS011;9178;51.120;6.192;2022-12-31T02:05:53;0.10;;;0.10;;
18102;SDS011;9178;51.120;6.192;2022-12-31T02:08:23;0.00;;;0.00;;
18102;SDS011;9178;51.120;6.192;2022-12-31T02:10:50;0.10;;;0.10;;
18102;SDS011;9178;51.120;6.192;2022-12-31T02:13:18;0.37;;;0.10;;
18102;SDS011;9178;51.120;6.192;2022-12-31T02:15:46;0.17;;;0.10;;
18102;SDS011;9178;51.120;6.192;2022-12-31T02:18:26;0.10;;;0.10;;
18102;SDS011;9178;51.120;6.192;2022-12-31T02:21:22;0.10;;;0.10;;
18102;SDS011;9178;51.120;6.192;2022-12-31T02:27:15;0.37;;;0.10;;
18102;SDS011;9178;51.120;6.192;2022-12-31T02:30:00;0.10;;;0.10;;
18102;SDS011;9178;51.120;6.192;2022-12-31T02:32:35;0.10;;;0.10;;
18102;SDS011;9178;51.120;6.192;2022-12-31T02:35:13;0.00;;;0.00;;
18102;SDS011;9178;51.120;6.192;2022-12-31T02:37:46;0.10;;;0.10;;
18102;SDS011;9178;51.120;6.192;2022-12-31T02:40:18;0.50;;;0.20;;
18102;SDS011;9178;51.120;6.192;2022-12-31T02:42:46;1.77;;;0.20;;
18102;SDS011;9178;51.120;6.192;2022-12-31T02:45:15;0.40;;;0.10;;
18102;SDS011;9178;51.120;6.192;2022-12-31T02:47:49;1.87;;;0.13;;
18102;SDS011;9178;51.120;6.192;2022-12-31T02:50:28;0.20;;;0.10;;
18102;SDS011;9178;51.120;6.192;2022-12-31T02:53:05;2.40;;;0.10;;
18102;SDS011;9178;51.120;6.192;2022-12-31T02:55:44;0.73;;;0.20;;
18102;SDS011;9178;51.120;6.192;2022-12-31T02:58:19;0.17;;;0.10;;
18102;SDS011;9178;51.120;6.192;2022-12-31T03:01:18;0.30;;;0.10;;
18102;SDS011;9178;51.120;6.192;2022-12-31T03:04:07;2.10;;;0.10;;
18102;SDS011;9178;51.120;6.192;2022-12-31T03:06:53;0.20;;;0.10;;
18102;SDS011;9178;51.120;6.192;2022-12-31T03:09:20;1.60;;;0.20;;
18102;SDS011;9178;51.120;6.192;2022-12-31T03:11:47;0.45;;;0.10;;
18102;SDS011;9178;51.120;6.192;2022-12-31T03:14:31;0.20;;;0.20;;
18102;SDS011;9178;51.120;6.192;2022-12-31T03:16:59;0.10;;;0.10;;
18102;SDS011;9178;51.120;6.192;2022-12-31T03:19:26;0.30;;;0.20;;
18102;SDS011;9178;51.120;6.192;2022-12-31T03:22:11;0.50;;;0.10;;
18102;SDS011;9178;51.120;6.192;2022-12-31T03:24:54;0.40;;;0.20;;
18102;SDS011;9178;51.120;6.192;2022-12-31T03:27:39;2.00;;;0.30;;
18102;SDS011;9178;51.120;6.192;2022-12-31T03:30:06;1.40;;;0.30;;
18102;SDS011;9178;51.120;6.192;2022-12-31T03:32:35;0.77;;;0.20;;
18102;SDS011;9178;51.120;6.192;2022-12-31T03:35:02;0.87;;;0.10;;
18102;SDS011;9178;51.120;6.192;2022-12-31T03:37:30;0.30;;;0.10;;
18102;SDS011;9178;51.120;6.192;2022-12-31T03:39:59;0.30;;;0.30;;
18102;SDS011;9178;51.120;6.192;2022-12-31T03:42:26;0.87;;;0.20;;
18102;SDS011;9178;51.120;6.192;2022-12-31T03:44:52;0.20;;;0.20;;
18102;SDS011;9178;51.120;6.192;2022-12-31T03:47:19;0.57;;;0.37;;
18102;SDS011;9178;51.120;6.192;2022-12-31T03:49:50;0.77;;;0.20;;
18102;SDS011;9178;51.120;6.192;2022-12-31T03:52:17;1.03;;;0.20;;
18102;SDS011;9178;51.120;6.192;2022-12-31T03:54:44;0.57;;;0.30;;
18102;SDS011;9178;51.120;6.192;2022-12-31T03:57:10;2.60;;;0.27;;
18102;SDS011;9178;51.120;6.192;2022-12-31T03:59:37;0.30;;;0.20;;
18102;SDS011;9178;51.120;6.192;2022-12-31T04:02:05;0.77;;;0.40;;
18102;SDS011;9178;51.120;6.192;2022-12-31T04:04:34;1.10;;;0.20;;
18102;SDS011;9178;51.120;6.192;2022-12-31T04:07:02;0.33;;;0.23;;
18102;SDS011;9178;51.120;6.192;2022-12-31T04:09:29;0.27;;;0.13;;
18102;SDS011;9178;51.120;6.192;2022-12-31T04:11:56;0.30;;;0.20;;
18102;SDS011;9178;51.120;6.192;2022-12-31T04:14:23;2.43;;;0.20;;
18102;SDS011;9178;51.120;6.192;2022-12-31T04:16:52;1.10;;;0.10;;
18102;SDS011;9178;51.120;6.192;2022-12-31T04:19:20;0.77;;;0.30;;
18102;SDS011;9178;51.120;6.192;2022-12-31T04:21:47;0.40;;;0.30;;
18102;SDS011;9178;51.120;6.192;2022-12-31T04:24:15;0.40;;;0.23;;
18102;SDS011;9178;51.120;6.192;2022-12-31T04:26:42;2.33;;;0.43;;
18102;SDS011;9178;51.120;6.192;2022-12-31T04:29:09;0.60;;;0.30;;
18102;SDS011;9178;51.120;6.192;2022-12-31T04:31:36;1.00;;;0.27;;
18102;SDS011;9178;51.120;6.192;2022-12-31T04:34:02;0.63;;;0.30;;
18102;SDS011;9178;51.120;6.192;2022-12-31T04:36:29;1.63;;;0.30;;
18102;SDS011;9178;51.120;6.192;2022-12-31T04:38:56;4.25;;;0.30;;
18102;SDS011;9178;51.120;6.192;2022-12-31T04:41:24;1.83;;;0.40;;
18102;SDS011;9178;51.120;6.192;2022-12-31T04:43:51;0.40;;;0.20;;
18102;SDS011;9178;51.120;6.192;2022-12-31T04:46:20;0.30;;;0.27;;
18102;SDS011;9178;51.120;6.192;2022-12-31T04:48:48;0.20;;;0.10;;
18102;SDS011;9178;51.120;6.192;2022-12-31T04:51:17;1.25;;;0.20;;
18102;SDS011;9178;51.120;6.192;2022-12-31T04:53:44;1.90;;;0.20;;
18102;SDS011;9178;51.120;6.192;2022-12-31T04:56:11;0.57;;;0.20;;
18102;SDS011;9178;51.120;6.192;2022-12-31T04:58:40;0.73;;;0.45;;
18102;SDS011;9178;51.120;6.192;2022-12-31T05:01:07;1.73;;;0.33;;
18102;SDS011;9178;51.120;6.192;2022-12-31T05:03:34;0.65;;;0.30;;
18102;SDS011;9178;51.120;6.192;2022-12-31T05:06:02;1.25;;;0.30;;
18102;SDS011;9178;51.120;6.192;2022-12-31T05:08:31;0.80;;;0.25;;
18102;SDS011;9178;51.120;6.192;2022-12-31T05:10:58;1.92;;;0.85;;
18102;SDS011;9178;51.120;6.192;2022-12-31T05:13:25;1.00;;;0.30;;
18102;SDS011;9178;51.120;6.192;2022-12-31T05:15:54;1.27;;;0.30;;
18102;SDS011;9178;51.120;6.192;2022-12-31T05:18:21;1.17;;;0.30;;
18102;SDS011;9178;51.120;6.192;2022-12-31T05:20:48;0.73;;;0.30;;
18102;SDS011;9178;51.120;6.192;2022-12-31T05:23:16;1.63;;;0.23;;
18102;SDS011;9178;51.120;6.192;2022-12-31T05:25:44;0.65;;;0.40;;
18102;SDS011;9178;51.120;6.192;2022-12-31T05:28:12;1.10;;;0.30;;
18102;SDS011;9178;51.120;6.192;2022-12-31T05:30:39;0.82;;;0.22;;
18102;SDS011;9178;51.120;6.192;2022-12-31T05:33:07;0.57;;;0.32;;
18102;SDS011;9178;51.120;6.192;2022-12-31T05:35:34;1.52;;;0.30;;
18102;SDS011;9178;51.120;6.192;2022-12-31T05:38:01;1.20;;;0.30;;
18102;SDS011;9178;51.120;6.192;2022-12-31T05:40:28;1.02;;;0.40;;
18102;SDS011;9178;51.120;6.192;2022-12-31T05:42:55;0.80;;;0.50;;
18102;SDS011;9178;51.120;6.192;2022-12-31T05:45:22;1.98;;;0.40;;
18102;SDS011;9178;51.120;6.192;2022-12-31T05:47:48;1.98;;;0.32;;
18102;SDS011;9178;51.120;6.192;2022-12-31T05:50:17;1.35;;;0.40;;
18102;SDS011;9178;51.120;6.192;2022-12-31T05:52:44;1.27;;;0.40;;
18102;SDS011;9178;51.120;6.192;2022-12-31T05:55:11;1.27;;;0.40;;
18102;SDS011;9178;51.120;6.192;2022-12-31T05:57:38;3.53;;;0.52;;
18102;SDS011;9178;51.120;6.192;2022-12-31T06:00:06;2.38;;;0.50;;
18102;SDS011;9178;51.120;6.192;2022-12-31T06:02:34;2.20;;;0.47;;
18102;SDS011;9178;51.120;6.192;2022-12-31T06:05:01;1.33;;;0.52;;
18102;SDS011;9178;51.120;6.192;2022-12-31T06:07:29;0.98;;;0.35;;
18102;SDS011;9178;51.120;6.192;2022-12-31T06:09:56;4.05;;;0.60;;
18102;SDS011;9178;51.120;6.192;2022-12-31T06:12:23;4.15;;;0.73;;
18102;SDS011;9178;51.120;6.192;2022-12-31T06:14:50;1.23;;;0.50;;
18102;SDS011;9178;51.120;6.192;2022-12-31T06:17:16;1.92;;;0.40;;
18102;SDS011;9178;51.120;6.192;2022-12-31T06:19:45;0.95;;;0.45;;
18102;SDS011;9178;51.120;6.192;2022-12-31T06:22:12;0.75;;;0.55;;
18102;SDS011;9178;51.120;6.192;2022-12-31T06:24:40;2.08;;;0.30;;
18102;SDS011;9178;51.120;6.192;2022-12-31T06:27:07;1.63;;;0.40;;
18102;SDS011;9178;51.120;6.192;2022-12-31T06:29:34;1.73;;;0.57;;
18102;SDS011;9178;51.120;6.192;2022-12-31T06:32:01;1.45;;;0.35;;
18102;SDS011;9178;51.120;6.192;2022-12-31T06:34:28;2.65;;;0.32;;
18102;SDS011;9178;51.120;6.192;2022-12-31T06:36:55;2.63;;;0.38;;
18102;SDS011;9178;51.120;6.192;2022-12-31T06:39:22;0.80;;;0.50;;
18102;SDS011;9178;51.120;6.192;2022-12-31T06:41:50;0.68;;;0.50;;
18102;SDS011;9178;51.120;6.192;2022-12-31T06:44:17;1.52;;;0.52;;
18102;SDS011;9178;51.120;6.192;2022-12-31T06:46:46;3.10;;;0.73;;
18102;SDS011;9178;51.120;6.192;2022-12-31T06:49:13;1.35;;;0.50;;
18102;SDS011;9178;51.120;6.192;2022-12-31T06:51:40;1.17;;;0.40;;
18102;SDS011;9178;51.120;6.192;2022-12-31T06:54:09;1.67;;;0.80;;
18102;SDS011;9178;51.120;6.192;2022-12-31T06:56:37;3.58;;;0.60;;
18102;SDS011;9178;51.120;6.192;2022-12-31T06:59:08;2.50;;;0.70;;
18102;SDS011;9178;51.120;6.192;2022-12-31T07:01:48;1.48;;;0.90;;
18102;SDS011;9178;51.120;6.192;2022-12-31T07:04:29;2.35;;;0.45;;
18102;SDS011;9178;51.120;6.192;2022-12-31T07:07:12;1.17;;;0.50;;
18102;SDS011;9178;51.120;6.192;2022-12-31T07:09:48;1.85;;;0.70;;
18102;SDS011;9178;51.120;6.192;2022-12-31T07:12:23;1.17;;;0.60;;
18102;SDS011;9178;51.120;6.192;2022-12-31T07:15:00;1.55;;;0.57;;
18102;SDS011;9178;51.120;6.192;2022-12-31T07:17:33;1.98;;;0.63;;
18102;SDS011;9178;51.120;6.192;2022-12-31T07:20:08;2.10;;;0.50;;
18102;SDS011;9178;51.120;6.192;2022-12-31T07:22:36;1.60;;;0.40;;
18102;SDS011;9178;51.120;6.192;2022-12-31T07:25:04;1.85;;;0.30;;
18102;SDS011;9178;51.120;6.192;2022-12-31T07:27:40;3.38;;;0.40;;
18102;SDS011;9178;51.120;6.192;2022-12-31T07:30:18;1.90;;;0.60;;
18102;SDS011;9178;51.120;6.192;2022-12-31T07:32:57;1.00;;;0.40;;
18102;SDS011;9178;51.120;6.192;2022-12-31T07:35:33;2.40;;;0.52;;
18102;SDS011;9178;51.120;6.192;2022-12-31T07:38:11;0.50;;;0.35;;
18102;SDS011;9178;51.120;6.192;2022-12-31T07:40:50;1.67;;;0.55;;
18102;SDS011;9178;51.120;6.192;2022-12-31T07:43:25;1.60;;;0.70;;
18102;SDS011;9178;51.120;6.192;2022-12-31T07:46:00;1.95;;;0.50;;
18102;SDS011;9178;51.120;6.192;2022-12-31T07:48:32;1.70;;;0.60;;
18102;SDS011;9178;51.120;6.192;2022-12-31T07:50:59;4.13;;;0.80;;
18102;SDS011;9178;51.120;6.192;2022-12-31T07:53:27;1.58;;;0.63;;
18102;SDS011;9178;51.120;6.192;2022-12-31T07:55:54;1.80;;;0.50;;
18102;SDS011;9178;51.120;6.192;2022-12-31T07:58:24;1.85;;;0.43;;
18102;SDS011;9178;51.120;6.192;2022-12-31T08:00:58;2.08;;;0.50;;
18102;SDS011;9178;51.120;6.192;2022-12-31T08:03:32;2.88;;;0.60;;
18102;SDS011;9178;51.120;6.192;2022-12-31T08:06:12;1.08;;;0.35;;
18102;SDS011;9178;51.120;6.192;2022-12-31T08:08:45;1.90;;;0.38;;
18102;SDS011;9178;51.120;6.192;2022-12-31T08:11:21;1.50;;;0.60;;
18102;SDS011;9178;51.120;6.192;2022-12-31T08:13:54;1.83;;;0.50;;
18102;SDS011;9178;51.120;6.192;2022-12-31T08:16:23;0.73;;;0.40;;
18102;SDS011;9178;51.120;6.192;2022-12-31T08:18:50;2.58;;;0.70;;
18102;SDS011;9178;51.120;6.192;2022-12-31T08:21:21;1.33;;;0.43;;
18102;SDS011;9178;51.120;6.192;2022-12-31T08:23:59;1.40;;;0.57;;
18102;SDS011;9178;51.120;6.192;2022-12-31T08:26:36;2.92;;;0.88;;
18102;SDS011;9178;51.120;6.192;2022-12-31T08:29:14;1.38;;;0.55;;
18102;SDS011;9178;51.120;6.192;2022-12-31T08:31:56;1.58;;;0.40;;
18102;SDS011;9178;51.120;6.192;2022-12-31T08:34:29;0.70;;;0.63;;
18102;SDS011;9178;51.120;6.192;2022-12-31T08:37:05;2.25;;;0.70;;
18102;SDS011;9178;51.120;6.192;2022-12-31T08:39:39;1.60;;;0.50;;
18102;SDS011;9178;51.120;6.192;2022-12-31T08:42:18;2.22;;;0.57;;
18102;SDS011;9178;51.120;6.192;2022-12-31T08:44:53;1.15;;;0.63;;
18102;SDS011;9178;51.120;6.192;2022-12-31T08:47:26;3.50;;;0.70;;
18102;SDS011;9178;51.120;6.192;2022-12-31T08:50:01;2.30;;;0.50;;
18102;SDS011;9178;51.120;6.192;2022-12-31T08:52:29;1.80;;;0.80;;
18102;SDS011;9178;51.120;6.192;2022-12-31T08:54:56;1.27;;;0.60;;
18102;SDS011;9178;51.120;6.192;2022-12-31T08:57:25;2.13;;;0.60;;
18102;SDS011;9178;51.120;6.192;2022-12-31T09:00:01;1.35;;;0.60;;
18102;SDS011;9178;51.120;6.192;2022-12-31T09:02:51;1.65;;;0.50;;
18102;SDS011;9178;51.120;6.192;2022-12-31T09:05:34;1.20;;;0.50;;
18102;SDS011;9178;51.120;6.192;2022-12-31T09:08:13;2.30;;;0.68;;
18102;SDS011;9178;51.120;6.192;2022-12-31T09:10:50;1.58;;;0.40;;
18102;SDS011;9178;51.120;6.192;2022-12-31T09:13:24;2.45;;;0.80;;
18102;SDS011;9178;51.120;6.192;2022-12-31T09:15:58;1.52;;;0.60;;
18102;SDS011;9178;51.120;6.192;2022-12-31T09:18:33;1.83;;;0.88;;
18102;SDS011;9178;51.120;6.192;2022-12-31T09:21:03;4.60;;;0.93;;
18102;SDS011;9178;51.120;6.192;2022-12-31T09:23:30;2.45;;;0.80;;
18102;SDS011;9178;51.120;6.192;2022-12-31T09:25:59;5.40;;;0.60;;
18102;SDS011;9178;51.120;6.192;2022-12-31T09:28:38;1.65;;;0.80;;
18102;SDS011;9178;51.120;6.192;2022-12-31T09:31:14;2.30;;;0.80;;
18102;SDS011;9178;51.120;6.192;2022-12-31T09:33:48;3.38;;;0.70;;
18102;SDS011;9178;51.120;6.192;2022-12-31T09:36:24;1.45;;;0.70;;
18102;SDS011;9178;51.120;6.192;2022-12-31T09:38:59;1.25;;;0.60;;
18102;SDS011;9178;51.120;6.192;2022-12-31T09:56:31;2.25;;;0.82;;
18102;SDS011;9178;51.120;6.192;2022-12-31T09:59:02;1.42;;;0.70;;
18102;SDS011;9178;51.120;6.192;2022-12-31T10:01:38;1.52;;;0.65;;
18102;SDS011;9178;51.120;6.192;2022-12-31T10:04:34;1.83;;;0.77;;
18102;SDS011;9178;51.120;6.192;2022-12-31T10:07:21;1.67;;;0.80;;
18102;SDS011;9178;51.120;6.192;2022-12-31T10:09:58;2.47;;;1.05;;
18102;SDS011;9178;51.120;6.192;2022-12-31T10:12:53;2.50;;;0.95;;
18102;SDS011;9178;51.120;6.192;2022-12-31T10:15:45;0.77;;;0.45;;
18102;SDS011;9178;51.120;6.192;2022-12-31T10:18:43;1.65;;;0.80;;
18102;SDS011;9178;51.120;6.192;2022-12-31T10:21:31;2.40;;;0.70;;
18102;SDS011;9178;51.120;6.192;2022-12-31T10:27:03;3.47;;;0.50;;
18102;SDS011;9178;51.120;6.192;2022-12-31T10:29:44;4.18;;;0.60;;
18102;SDS011;9178;51.120;6.192;2022-12-31T10:32:14;3.03;;;0.63;;
18102;SDS011;9178;51.120;6.192;2022-12-31T10:34:51;1.52;;;0.82;;
18102;SDS011;9178;51.120;6.192;2022-12-31T10:37:22;3.72;;;0.90;;
18102;SDS011;9178;51.120;6.192;2022-12-31T10:39:55;1.42;;;0.60;;
18102;SDS011;9178;51.120;6.192;2022-12-31T10:48:49;1.92;;;0.70;;
18102;SDS011;9178;51.120;6.192;2022-12-31T10:51:56;3.72;;;0.63;;
18102;SDS011;9178;51.120;6.192;2022-12-31T10:58:10;2.15;;;0.68;;
18102;SDS011;9178;51.120;6.192;2022-12-31T11:00:59;2.90;;;0.85;;
18102;SDS011;9178;51.120;6.192;2022-12-31T11:06:50;1.88;;;0.70;;
18102;SDS011;9178;51.120;6.192;2022-12-31T11:09:52;2.92;;;0.95;;
18102;SDS011;9178;51.120;6.192;2022-12-31T11:12:42;1.42;;;0.70;;
18102;SDS011;9178;51.120;6.192;2022-12-31T11:15:47;3.75;;;1.05;;
18102;SDS011;9178;51.120;6.192;2022-12-31T11:18:37;1.70;;;0.65;;
18102;SDS011;9178;51.120;6.192;2022-12-31T11:21:15;6.63;;;1.02;;
18102;SDS011;9178;51.120;6.192;2022-12-31T11:23:50;1.77;;;0.73;;
18102;SDS011;9178;51.120;6.192;2022-12-31T11:26:30;3.50;;;0.82;;
18102;SDS011;9178;51.120;6.192;2022-12-31T11:32:09;2.33;;;0.80;;
18102;SDS011;9178;51.120;6.192;2022-12-31T11:37:36;2.50;;;0.90;;
18102;SDS011;9178;51.120;6.192;2022-12-31T11:43:12;3.40;;;0.95;;
18102;SDS011;9178;51.120;6.192;2022-12-31T11:45:59;2.10;;;0.85;;
18102;SDS011;9178;51.120;6.192;2022-12-31T11:48:35;2.85;;;0.80;;
18102;SDS011;9178;51.120;6.192;2022-12-31T11:51:13;2.85;;;0.90;;
18102;SDS011;9178;51.120;6.192;2022-12-31T11:53:59;2.92;;;0.73;;
18102;SDS011;9178;51.120;6.192;2022-12-31T11:56:43;1.75;;;0.80;;
18102;SDS011;9178;51.120;6.192;2022-12-31T11:59:15;2.33;;;0.70;;
18102;SDS011;9178;51.120;6.192;2022-12-31T12:01:44;2.72;;;1.00;;
18102;SDS011;9178;51.120;6.192;2022-12-31T12:04:19;0.95;;;0.70;;
18102;SDS011;9178;51.120;6.192;2022-12-31T12:06:45;4.05;;;0.88;;
18102;SDS011;9178;51.120;6.192;2022-12-31T12:09:13;2.88;;;0.77;;
18102;SDS011;9178;51.120;6.192;2022-12-31T12:11:44;1.00;;;0.85;;
18102;SDS011;9178;51.120;6.192;2022-12-31T12:14:17;4.55;;;0.90;;
18102;SDS011;9178;51.120;6.192;2022-12-31T12:16:45;6.10;;;0.73;;
18102;SDS011;9178;51.120;6.192;2022-12-31T12:19:15;2.83;;;0.80;;
18102;SDS011;9178;51.120;6.192;2022-12-31T12:21:45;2.10;;;1.10;;
18102;SDS011;9178;51.120;6.192;2022-12-31T12:24:17;3.78;;;0.90;;
18102;SDS011;9178;51.120;6.192;2022-12-31T12:26:46;3.90;;;1.00;;
18102;SDS011;9178;51.120;6.192;2022-12-31T12:29:15;2.60;;;0.75;;
18102;SDS011;9178;51.120;6.192;2022-12-31T12:31:53;2.65;;;0.80;;
18102;SDS011;9178;51.120;6.192;2022-12-31T12:34:21;2.45;;;0.80;;
18102;SDS011;9178;51.120;6.192;2022-12-31T12:36:51;3.58;;;1.13;;
18102;SDS011;9178;51.120;6.192;2022-12-31T12:39:20;2.20;;;0.77;;
18102;SDS011;9178;51.120;6.192;2022-12-31T12:41:58;1.58;;;0.80;;
18102;SDS011;9178;51.120;6.192;2022-12-31T12:44:26;1.80;;;1.00;;
18102;SDS011;9178;51.120;6.192;2022-12-31T12:46:53;4.30;;;0.90;;
18102;SDS011;9178;51.120;6.192;2022-12-31T12:49:21;2.60;;;0.98;;
18102;SDS011;9178;51.120;6.192;2022-12-31T12:52:02;2.15;;;0.70;;
18102;SDS011;9178;51.120;6.192;2022-12-31T12:54:43;2.22;;;0.88;;
18102;SDS011;9178;51.120;6.192;2022-12-31T12:57:23;3.17;;;0.70;;
18102;SDS011;9178;51.120;6.192;2022-12-31T13:00:04;3.55;;;1.00;;
18102;SDS011;9178;51.120;6.192;2022-12-31T13:02:54;3.28;;;0.95;;
18102;SDS011;9178;51.120;6.192;2022-12-31T13:05:47;2.90;;;1.08;;
18102;SDS011;9178;51.120;6.192;2022-12-31T13:08:25;3.47;;;1.00;;
18102;SDS011;9178;51.120;6.192;2022-12-31T13:11:06;3.55;;;0.88;;
18102;SDS011;9178;51.120;6.192;2022-12-31T13:13:44;3.28;;;0.80;;
18102;SDS011;9178;51.120;6.192;2022-12-31T13:16:16;3.05;;;1.00;;
18102;SDS011;9178;51.120;6.192;2022-12-31T13:18:50;3.63;;;1.05;;
18102;SDS011;9178;51.120;6.192;2022-12-31T13:21:29;1.40;;;1.08;;
18102;SDS011;9178;51.120;6.192;2022-12-31T13:24:06;1.95;;;0.80;;
18102;SDS011;9178;51.120;6.192;2022-12-31T13:26:46;4.57;;;1.20;;
18102;SDS011;9178;51.120;6.192;2022-12-31T13:29:21;3.53;;;1.02;;
18102;SDS011;9178;51.120;6.192;2022-12-31T13:31:50;2.30;;;1.13;;
18102;SDS011;9178;51.120;6.192;2022-12-31T13:34:20;1.30;;;0.90;;
18102;SDS011;9178;51.120;6.192;2022-12-31T13:36:51;1.92;;;0.85;;
18102;SDS011;9178;51.120;6.192;2022-12-31T13:39:21;1.52;;;0.98;;
18102;SDS011;9178;51.120;6.192;2022-12-31T13:41:51;3.10;;;1.27;;
18102;SDS011;9178;51.120;6.192;2022-12-31T13:44:25;3.95;;;0.90;;
18102;SDS011;9178;51.120;6.192;2022-12-31T13:46:55;5.18;;;1.02;;
18102;SDS011;9178;51.120;6.192;2022-12-31T13:49:28;3.78;;;1.10;;
18102;SDS011;9178;51.120;6.192;2022-12-31T13:51:57;4.07;;;1.35;;
18102;SDS011;9178;51.120;6.192;2022-12-31T13:54:32;4.97;;;0.80;;
18102;SDS011;9178;51.120;6.192;2022-12-31T13:57:04;3.15;;;1.05;;
18102;SDS011;9178;51.120;6.192;2022-12-31T13:59:39;3.95;;;1.10;;
18102;SDS011;9178;51.120;6.192;2022-12-31T14:02:15;3.70;;;1.10;;
18102;SDS011;9178;51.120;6.192;2022-12-31T14:04:53;2.85;;;1.35;;
18102;SDS011;9178;51.120;6.192;2022-12-31T14:07:27;4.88;;;1.05;;
18102;SDS011;9178;51.120;6.192;2022-12-31T14:10:01;5.95;;;1.83;;
18102;SDS011;9178;51.120;6.192;2022-12-31T14:12:34;2.03;;;1.63;;
18102;SDS011;9178;51.120;6.192;2022-12-31T14:15:12;2.72;;;1.35;;
18102;SDS011;9178;51.120;6.192;2022-12-31T14:17:45;3.58;;;1.05;;
18102;SDS011;9178;51.120;6.192;2022-12-31T14:20:20;2.65;;;1.25;;
18102;SDS011;9178;51.120;6.192;2022-12-31T14:22:55;2.72;;;1.40;;
18102;SDS011;9178;51.120;6.192;2022-12-31T14:25:30;3.42;;;1.33;;
18102;SDS011;9178;51.120;6.192;2022-12-31T14:28:02;5.20;;;1.20;;
18102;SDS011;9178;51.120;6.192;2022-12-31T14:30:32;2.40;;;1.55;;
18102;SDS011;9178;51.120;6.192;2022-12-31T14:33:08;2.90;;;1.40;;
18102;SDS011;9178;51.120;6.192;2022-12-31T14:35:52;4.88;;;1.88;;
18102;SDS011;9178;51.120;6.192;2022-12-31T14:38:32;3.92;;;1.17;;
18102;SDS011;9178;51.120;6.192;2022-12-31T14:41:13;3.67;;;1.05;;
18102;SDS011;9178;51.120;6.192;2022-12-31T14:43:53;2.58;;;1.30;;
18102;SDS011;9178;51.120;6.192;2022-12-31T14:46:27;3.30;;;0.98;;
18102;SDS011;9178;51.120;6.192;2022-12-31T14:49:05;3.92;;;1.17;;
18102;SDS011;9178;51.120;6.192;2022-12-31T14:51:45;2.55;;;1.20;;
18102;SDS011;9178;51.120;6.192;2022-12-31T14:54:23;3.38;;;1.00;;
18102;SDS011;9178;51.120;6.192;2022-12-31T14:56:53;4.18;;;1.23;;
18102;SDS011;9178;51.120;6.192;2022-12-31T14:59:22;2.83;;;1.00;;
18102;SDS011;9178;51.120;6.192;2022-12-31T15:01:52;3.38;;;1.20;;
18102;SDS011;9178;51.120;6.192;2022-12-31T15:04:31;1.75;;;1.08;;
18102;SDS011;9178;51.120;6.192;2022-12-31T15:07:08;2.47;;;1.30;;
18102;SDS011;9178;51.120;6.192;2022-12-31T15:09:49;2.50;;;0.95;;
18102;SDS011;9178;51.120;6.192;2022-12-31T15:12:29;3.58;;;1.30;;
18102;SDS011;9178;51.120;6.192;2022-12-31T15:15:24;2.85;;;1.08;;
18102;SDS011;9178;51.120;6.192;2022-12-31T15:18:10;4.07;;;1.20;;
18102;SDS011;9178;51.120;6.192;2022-12-31T15:21:05;2.17;;;1.23;;
18102;SDS011;9178;51.120;6.192;2022-12-31T15:23:59;4.10;;;1.38;;
18102;SDS011;9178;51.120;6.192;2022-12-31T15:26:26;2.45;;;1.10;;
18102;SDS011;9178;51.120;6.192;2022-12-31T15:28:58;2.40;;;1.38;;
18102;SDS011;9178;51.120;6.192;2022-12-31T15:31:27;2.55;;;1.00;;
18102;SDS011;9178;51.120;6.192;2022-12-31T15:33:56;1.20;;;0.93;;
18102;SDS011;9178;51.120;6.192;2022-12-31T15:36:25;1.92;;;0.90;;
18102;SDS011;9178;51.120;6.192;2022-12-31T15:39:02;2.53;;;1.10;;
18102;SDS011;9178;51.120;6.192;2022-12-31T15:41:35;2.88;;;1.00;;
18102;SDS011;9178;51.120;6.192;2022-12-31T15:44:12;1.30;;;1.20;;
18102;SDS011;9178;51.120;6.192;2022-12-31T15:46:44;3.90;;;0.98;;
18102;SDS011;9178;51.120;6.192;2022-12-31T15:49:17;2.00;;;1.15;;
18102;SDS011;9178;51.120;6.192;2022-12-31T15:51:48;4.13;;;1.20;;
18102;SDS011;9178;51.120;6.192;2022-12-31T15:54:20;3.00;;;0.95;;
18102;SDS011;9178;51.120;6.192;2022-12-31T15:57:35;1.17;;;1.00;;
18102;SDS011;9178;51.120;6.192;2022-12-31T15:59:45;2.92;;;1.15;;
18102;SDS011;9178;51.120;6.192;2022-12-31T16:02:16;4.15;;;1.00;;
18102;SDS011;9178;51.120;6.192;2022-12-31T16:04:46;2.58;;;1.02;;
18102;SDS011;9178;51.120;6.192;2022-12-31T16:07:13;1.42;;;0.90;;
18102;SDS011;9178;51.120;6.192;2022-12-31T16:09:40;1.00;;;0.85;;
18102;SDS011;9178;51.120;6.192;2022-12-31T16:12:09;1.77;;;0.90;;
18102;SDS011;9178;51.120;6.192;2022-12-31T16:14:48;2.50;;;1.00;;
18102;SDS011;9178;51.120;6.192;2022-12-31T16:17:24;3.42;;;1.20;;
18102;SDS011;9178;51.120;6.192;2022-12-31T16:19:53;2.20;;;0.82;;